createdAt,value
2023-03-31T00:02:41.970Z,14.05
2023-03-31T00:05:48.140Z,12.57
2023-03-31T00:08:52.260Z,14.07
2023-03-31T00:11:55.338Z,12.13
2023-03-31T00:14:57.625Z,14.68
2023-03-31T00:18:00.674Z,12.18
2023-03-31T00:21:25.204Z,10.57
2023-03-31T00:24:32.656Z,17.38
2023-03-31T00:27:40.138Z,13.07
2023-03-31T00:30:44.732Z,10.20
2023-03-31T00:33:47.016Z,11.48
2023-03-31T00:36:56.560Z,19.65
2023-03-31T00:39:59.805Z,18.27
2023-03-31T00:43:03.380Z,14.30
2023-03-31T00:46:36.379Z,10.55
2023-03-31T00:49:45.661Z,10.88
2023-03-31T00:52:54.932Z,13.63
2023-03-31T00:56:02.351Z,11.95
2023-03-31T00:59:12.190Z,11.63
2023-03-31T01:02:15.860Z,10.70
2023-03-31T01:05:38.125Z,9.18
2023-03-31T01:08:44.601Z,11.48
2023-03-31T01:11:48.013Z,11.43
2023-03-31T01:14:55.515Z,9.05
2023-03-31T01:17:58.289Z,9.90
2023-03-31T01:21:19.394Z,11.77
2023-03-31T01:25:01.625Z,9.75
2023-03-31T01:28:36.096Z,10.23
2023-03-31T01:31:47.183Z,7.22
2023-03-31T01:34:52.335Z,13.52
2023-03-31T01:38:18.558Z,11.23
2023-03-31T01:41:32.183Z,11.20
2023-03-31T01:47:49.106Z,10.80
2023-03-31T01:51:02.140Z,10.38
2023-03-31T01:54:27.940Z,8.73
2023-03-31T01:57:39.461Z,12.18
2023-03-31T02:00:52.076Z,11.65
2023-03-31T02:04:25.787Z,9.63
2023-03-31T02:07:35.137Z,8.13
2023-03-31T02:10:42.917Z,9.50
2023-03-31T02:13:48.660Z,8.65
2023-03-31T02:16:58.541Z,10.48
2023-03-31T02:20:11.318Z,8.40
2023-03-31T02:23:19.998Z,10.25
2023-03-31T02:26:27.474Z,11.60
2023-03-31T02:29:34.715Z,9.88
2023-03-31T02:32:40.864Z,9.32
2023-03-31T02:35:43.326Z,9.10
2023-03-31T02:39:13.060Z,9.10
2023-03-31T02:42:21.039Z,8.02
2023-03-31T02:45:39.627Z,8.63
2023-03-31T02:48:50.740Z,9.07
2023-03-31T02:52:14.189Z,6.72
2023-03-31T02:55:51.603Z,7.20
2023-03-31T02:59:16.760Z,6.60
2023-03-31T03:02:43.731Z,5.57
2023-03-31T03:05:50.246Z,8.32
2023-03-31T03:09:42.348Z,7.40
2023-03-31T03:12:56.985Z,6.78
2023-03-31T03:16:08.499Z,8.27
2023-03-31T03:19:17.989Z,6.72
2023-03-31T03:22:25.266Z,6.05
2023-03-31T03:25:27.789Z,6.28
2023-03-31T03:28:30.051Z,10.00
2023-03-31T03:31:33.745Z,7.38
2023-03-31T03:34:40.793Z,5.82
2023-03-31T03:37:45.508Z,5.47
2023-03-31T03:40:52.632Z,5.82
2023-03-31T03:43:54.987Z,6.05
2023-03-31T03:46:57.280Z,6.18
2023-03-31T03:50:01.977Z,7.15
2023-03-31T03:53:09.956Z,4.88
2023-03-31T03:56:15.538Z,4.82
2023-03-31T03:59:17.823Z,5.55
2023-03-31T04:02:22.576Z,6.22
2023-03-31T04:05:25.433Z,5.93
2023-03-31T04:08:27.825Z,7.32
2023-03-31T04:11:30.414Z,5.55
2023-03-31T04:14:35.371Z,5.18
2023-03-31T04:17:37.874Z,3.88
2023-03-31T04:20:45.030Z,4.28
2023-03-31T04:23:47.545Z,3.65
2023-03-31T04:26:52.640Z,4.63
2023-03-31T04:29:57.898Z,3.75
2023-03-31T04:33:06.691Z,6.45
2023-03-31T04:36:18.940Z,4.53
2023-03-31T04:39:26.919Z,5.82
2023-03-31T04:42:31.578Z,4.68
2023-03-31T04:45:36.390Z,4.90
2023-03-31T04:48:43.563Z,5.28
2023-03-31T04:51:46.082Z,8.27
2023-03-31T04:54:50.541Z,6.18
2023-03-31T04:57:53.302Z,4.65
2023-03-31T05:00:55.577Z,5.95
2023-03-31T05:04:00.181Z,4.32
2023-03-31T05:07:05.192Z,5.30
2023-03-31T05:10:08.040Z,5.45
2023-03-31T05:13:12.544Z,5.20
2023-03-31T05:16:14.971Z,7.50
2023-03-31T05:19:18.383Z,7.10
2023-03-31T05:22:21.382Z,6.07
2023-03-31T05:25:24.163Z,6.68
2023-03-31T05:28:26.428Z,6.78
2023-03-31T05:31:28.706Z,6.35
2023-03-31T05:34:36.494Z,5.32
2023-03-31T05:37:38.777Z,4.88
2023-03-31T05:40:42.051Z,5.97
2023-03-31T05:43:44.363Z,7.75
2023-03-31T05:46:47.046Z,8.60
2023-03-31T05:49:52.022Z,5.05
2023-03-31T05:52:54.315Z,6.97
2023-03-31T05:56:01.981Z,8.48
2023-03-31T05:59:09.039Z,6.63
2023-03-31T06:02:17.142Z,8.05
2023-03-31T06:05:23.108Z,7.18
2023-03-31T06:08:28.036Z,6.22
2023-03-31T06:11:33.534Z,8.88
2023-03-31T06:14:40.298Z,9.80
2023-03-31T06:17:42.631Z,10.40
2023-03-31T06:20:44.968Z,9.07
2023-03-31T06:23:48.257Z,10.55
2023-03-31T06:26:53.954Z,9.15
2023-03-31T06:29:56.550Z,8.05
2023-03-31T06:32:58.949Z,9.95
2023-03-31T06:36:04.248Z,10.10
2023-03-31T06:39:08.910Z,9.80
2023-03-31T06:42:15.950Z,16.42
2023-03-31T06:45:22.156Z,10.95
2023-03-31T06:48:27.734Z,12.30
2023-03-31T06:51:31.831Z,7.80
2023-03-31T06:54:35.145Z,8.57
2023-03-31T06:57:42.422Z,9.02
2023-03-31T07:00:47.279Z,12.45
2023-03-31T07:03:52.217Z,9.40
2023-03-31T07:06:54.486Z,7.95
2023-03-31T07:09:57.461Z,10.95
2023-03-31T07:12:59.965Z,12.02
2023-03-31T07:16:05.313Z,7.80
2023-03-31T07:19:12.735Z,9.52
2023-03-31T07:22:15.885Z,9.57
2023-03-31T07:25:20.777Z,11.18
2023-03-31T07:28:22.999Z,7.85
2023-03-31T07:31:27.786Z,7.78
2023-03-31T07:34:30.136Z,9.10
2023-03-31T07:37:36.650Z,8.27
2023-03-31T07:40:40.142Z,8.43
2023-03-31T07:43:45.553Z,7.55
2023-03-31T07:46:47.801Z,8.98
2023-03-31T07:49:52.840Z,8.10
2023-03-31T07:53:02.204Z,8.55
2023-03-31T07:56:07.401Z,7.55
2023-03-31T07:59:10.119Z,8.52
2023-03-31T08:02:14.184Z,7.53
2023-03-31T08:05:21.506Z,8.77
2023-03-31T08:08:23.993Z,9.88
2023-03-31T08:11:26.513Z,7.07
2023-03-31T08:14:40.647Z,7.55
2023-03-31T08:17:46.423Z,7.57
2023-03-31T08:20:50.004Z,6.45
2023-03-31T08:23:56.992Z,8.60
2023-03-31T08:26:59.383Z,10.98
2023-03-31T08:30:05.134Z,6.28
2023-03-31T08:33:13.057Z,5.80
2023-03-31T08:36:15.657Z,8.82
2023-03-31T08:39:18.358Z,7.43
2023-03-31T08:42:27.255Z,8.45
2023-03-31T08:45:56.411Z,6.28
2023-03-31T08:49:02.741Z,6.82
2023-03-31T08:52:12.482Z,5.78
2023-03-31T08:55:24.301Z,6.50
2023-03-31T08:58:41.299Z,5.95
2023-03-31T09:01:57.116Z,7.45
2023-03-31T09:05:11.785Z,9.48
2023-03-31T09:08:37.289Z,5.70
2023-03-31T09:11:56.857Z,6.50
2023-03-31T09:18:17.165Z,7.65
2023-03-31T09:21:40.394Z,6.53
2023-03-31T09:24:49.334Z,7.95
2023-03-31T09:27:54.348Z,6.13
2023-03-31T09:30:57.031Z,6.40
2023-03-31T09:34:16.248Z,7.35
2023-03-31T09:37:18.696Z,6.05
2023-03-31T09:40:23.980Z,5.25
2023-03-31T09:43:29.692Z,5.55
2023-03-31T09:46:38.570Z,8.73
2023-03-31T09:49:54.093Z,8.00
2023-03-31T09:52:59.606Z,8.60
2023-03-31T10:02:35.805Z,5.40
2023-03-31T10:05:41.334Z,4.43
2023-03-31T10:09:05.525Z,5.25
2023-03-31T10:12:24.465Z,4.07
2023-03-31T10:15:30.784Z,6.45
2023-03-31T10:18:41.086Z,3.78
2023-03-31T10:21:48.230Z,4.15
2023-03-31T10:24:52.156Z,6.18
2023-03-31T10:28:00.297Z,5.40
2023-03-31T10:31:06.630Z,5.85
2023-03-31T10:34:17.071Z,6.22
2023-03-31T10:37:28.522Z,7.13
2023-03-31T10:40:35.674Z,4.57
2023-03-31T10:43:51.620Z,4.40
2023-03-31T10:46:54.028Z,4.70
2023-03-31T10:49:57.926Z,10.18
2023-03-31T10:53:07.413Z,4.10
2023-03-31T10:56:19.141Z,5.80
2023-03-31T10:59:59.500Z,6.65
2023-03-31T11:03:23.060Z,5.53
2023-03-31T11:06:27.952Z,6.88
2023-03-31T11:10:00.868Z,3.97
2023-03-31T11:13:33.689Z,4.40
2023-03-31T11:17:01.071Z,7.55
2023-03-31T11:20:12.891Z,4.00
2023-03-31T11:23:56.994Z,4.78
2023-03-31T11:27:14.232Z,5.75
2023-03-31T11:30:27.024Z,4.63
2023-03-31T11:33:34.854Z,6.80
2023-03-31T11:36:45.680Z,5.18
2023-03-31T11:39:56.622Z,6.35
2023-03-31T11:43:17.017Z,5.53
2023-03-31T11:46:24.031Z,4.75
2023-03-31T11:49:38.236Z,6.18
2023-03-31T11:52:45.428Z,5.55
2023-03-31T11:55:51.966Z,6.43
2023-03-31T11:59:00.716Z,3.53
2023-03-31T12:02:21.367Z,4.05
2023-03-31T12:05:30.713Z,4.70
2023-03-31T12:08:41.830Z,5.03
2023-03-31T12:11:52.065Z,5.32
2023-03-31T12:15:25.469Z,5.40
2023-03-31T12:18:31.751Z,5.10
2023-03-31T12:21:38.267Z,5.20
2023-03-31T12:24:42.964Z,4.47
2023-03-31T12:27:49.928Z,6.40
2023-03-31T12:30:53.824Z,6.43
2023-03-31T12:34:05.432Z,6.07
2023-03-31T12:37:19.966Z,5.90
2023-03-31T12:40:40.359Z,5.03
2023-03-31T12:43:54.726Z,4.68
2023-03-31T12:47:23.382Z,8.13
2023-03-31T12:50:41.135Z,5.10
2023-03-31T12:54:04.052Z,5.45
2023-03-31T12:57:09.355Z,6.65
2023-03-31T13:00:21.329Z,5.18
2023-03-31T13:03:35.391Z,6.10
2023-03-31T13:06:38.974Z,3.95
2023-03-31T13:09:52.250Z,7.78
2023-03-31T13:13:00.613Z,6.18
2023-03-31T13:16:03.191Z,5.47
2023-03-31T13:19:06.215Z,4.95
2023-03-31T13:22:35.856Z,6.55
2023-03-31T13:26:02.133Z,4.05
2023-03-31T13:29:22.557Z,4.30
2023-03-31T13:32:26.239Z,6.22
2023-03-31T13:35:33.998Z,6.70
2023-03-31T13:38:58.340Z,6.18
2023-03-31T13:42:28.041Z,4.57
2023-03-31T13:49:10.133Z,6.40
2023-03-31T13:52:13.582Z,4.38
2023-03-31T13:55:40.794Z,7.30
2023-03-31T13:59:12.100Z,7.30
2023-03-31T14:02:34.755Z,3.80
2023-03-31T14:05:45.746Z,5.63
2023-03-31T14:08:57.862Z,6.13
2023-03-31T14:12:18.972Z,5.60
2023-03-31T14:15:24.221Z,5.50
2023-03-31T14:18:37.009Z,4.13
2023-03-31T14:22:02.447Z,5.15
2023-03-31T14:25:29.648Z,7.75
2023-03-31T14:28:52.537Z,5.90
2023-03-31T14:32:06.762Z,5.13
2023-03-31T14:35:38.877Z,4.63
2023-03-31T14:38:41.693Z,6.13
2023-03-31T14:41:49.420Z,7.93
2023-03-31T14:44:56.381Z,5.40
2023-03-31T14:48:16.409Z,3.88
2023-03-31T14:51:26.988Z,5.63
2023-03-31T14:54:37.239Z,6.38
2023-03-31T14:57:46.079Z,4.50
2023-03-31T15:00:52.337Z,4.55
2023-03-31T15:03:55.813Z,7.05
2023-03-31T15:07:06.130Z,6.65
2023-03-31T15:10:08.870Z,4.72
2023-03-31T15:13:19.916Z,4.95
2023-03-31T15:16:30.144Z,3.58
2023-03-31T15:19:38.098Z,5.45
2023-03-31T15:22:40.935Z,6.72
2023-03-31T15:25:44.335Z,7.32
2023-03-31T15:28:53.526Z,6.15
2023-03-31T15:31:59.736Z,4.75
2023-03-31T15:35:29.742Z,4.00
2023-03-31T15:38:37.470Z,3.90
2023-03-31T15:41:39.821Z,5.00
2023-03-31T15:44:47.027Z,4.43
2023-03-31T15:47:59.440Z,6.00
2023-03-31T15:51:14.554Z,7.65
2023-03-31T15:54:49.412Z,4.55
2023-03-31T15:57:57.567Z,4.07
2023-03-31T16:01:08.978Z,6.35
2023-03-31T16:04:15.438Z,4.57
2023-03-31T16:07:31.684Z,5.80
2023-03-31T16:10:35.347Z,5.55
2023-03-31T16:13:42.098Z,4.47
2023-03-31T16:16:54.535Z,4.70
2023-03-31T16:20:07.459Z,5.57
2023-03-31T16:23:32.788Z,3.15
2023-03-31T16:26:37.397Z,3.45
2023-03-31T16:29:39.843Z,4.75
2023-03-31T16:33:08.643Z,5.80
2023-03-31T16:36:16.077Z,4.57
2023-03-31T16:39:18.501Z,3.67
2023-03-31T16:42:21.577Z,4.35
2023-03-31T16:45:27.270Z,5.78
2023-03-31T16:48:33.706Z,5.05
2023-03-31T16:51:38.370Z,4.30
2023-03-31T16:54:42.958Z,3.15
2023-03-31T16:57:45.218Z,4.40
2023-03-31T17:00:52.937Z,3.88
2023-03-31T17:03:57.570Z,4.90
2023-03-31T17:07:04.471Z,4.07
2023-03-31T17:10:07.592Z,4.82
2023-03-31T17:13:12.479Z,3.72
2023-03-31T17:16:24.256Z,3.70
2023-03-31T17:19:29.183Z,3.55
2023-03-31T17:22:33.656Z,3.75
2023-03-31T17:25:40.847Z,6.05
2023-03-31T17:28:45.723Z,4.95
2023-03-31T17:31:48.050Z,6.00
2023-03-31T17:34:50.559Z,4.90
2023-03-31T17:37:55.696Z,4.40
2023-03-31T17:41:12.694Z,7.15
2023-03-31T17:44:17.249Z,4.32
2023-03-31T17:47:24.321Z,4.15
2023-03-31T17:50:27.264Z,5.82
2023-03-31T17:53:32.686Z,4.75
2023-03-31T17:56:39.527Z,5.38
2023-03-31T17:59:41.866Z,4.35
2023-03-31T18:02:46.869Z,7.13
2023-03-31T18:05:51.357Z,5.85
2023-03-31T18:09:01.337Z,4.75
2023-03-31T18:12:04.043Z,7.28
2023-03-31T18:15:10.917Z,5.70
2023-03-31T18:18:15.750Z,5.70
2023-03-31T18:21:18.117Z,7.00
2023-03-31T18:24:25.181Z,6.10
2023-03-31T18:27:27.520Z,4.75
2023-03-31T18:30:32.335Z,4.25
2023-03-31T18:33:35.751Z,5.97
2023-03-31T18:36:38.221Z,5.70
2023-03-31T18:39:40.626Z,3.92
2023-03-31T18:42:42.995Z,4.30
2023-03-31T18:45:52.410Z,5.78
2023-03-31T18:48:56.884Z,6.00
2023-03-31T18:51:59.316Z,6.25
2023-03-31T18:55:02.791Z,5.07
2023-03-31T18:58:05.425Z,4.55
2023-03-31T19:01:07.829Z,5.88
2023-03-31T19:04:12.391Z,5.05
2023-03-31T19:07:17.693Z,5.30
2023-03-31T19:10:20.073Z,5.35
2023-03-31T19:13:25.144Z,6.95
2023-03-31T19:16:29.929Z,5.85
2023-03-31T19:19:32.519Z,4.82
2023-03-31T19:22:37.074Z,4.13
2023-03-31T19:25:44.888Z,7.65
2023-03-31T19:28:48.364Z,5.75
2023-03-31T19:31:53.248Z,6.80
2023-03-31T19:34:55.927Z,6.47
2023-03-31T19:38:00.710Z,8.75
2023-03-31T19:41:04.934Z,3.95
2023-03-31T19:44:07.208Z,4.35
2023-03-31T19:47:11.721Z,2.80
2023-03-31T19:50:17.085Z,2.33
2023-03-31T19:53:20.766Z,3.80
2023-03-31T19:56:27.032Z,2.22
2023-03-31T19:59:29.418Z,4.95
2023-03-31T20:02:37.217Z,2.30
2023-03-31T20:05:43.897Z,3.33
2023-03-31T20:08:52.031Z,2.55
2023-03-31T20:11:58.800Z,4.22
2023-03-31T20:15:01.154Z,3.33
2023-03-31T20:18:03.548Z,2.22
2023-03-31T20:21:16.607Z,4.35
2023-03-31T20:24:21.547Z,3.08
2023-03-31T20:27:26.464Z,3.10
2023-03-31T20:30:33.464Z,2.80
2023-03-31T20:33:36.416Z,2.15
2023-03-31T20:36:43.334Z,1.85
2023-03-31T20:39:48.495Z,2.15
2023-03-31T20:42:50.748Z,3.13
2023-03-31T20:46:04.377Z,2.33
2023-03-31T20:49:13.097Z,2.13
2023-03-31T20:52:15.513Z,2.47
2023-03-31T20:55:17.921Z,2.70
2023-03-31T20:58:21.338Z,1.08
2023-03-31T21:01:28.249Z,1.92
2023-03-31T21:04:30.624Z,2.55
2023-03-31T21:07:32.932Z,9.55
2023-03-31T21:10:46.572Z,2.40
2023-03-31T21:13:48.976Z,2.60
2023-03-31T21:16:51.307Z,3.17
2023-03-31T21:19:53.579Z,4.80
2023-03-31T21:22:58.462Z,2.15
2023-03-31T21:26:02.679Z,2.17
2023-03-31T21:29:07.311Z,2.38
2023-03-31T21:32:11.763Z,3.35
2023-03-31T21:35:17.298Z,2.67
2023-03-31T21:38:22.854Z,4.55
2023-03-31T21:41:28.180Z,3.13
2023-03-31T21:44:32.904Z,3.00
2023-03-31T21:47:38.530Z,3.15
2023-03-31T21:50:46.030Z,3.92
2023-03-31T21:53:49.770Z,4.88
2023-03-31T21:56:56.952Z,3.30
2023-03-31T21:59:59.284Z,4.05
2023-03-31T22:03:22.332Z,2.40
2023-03-31T22:06:26.619Z,2.30
2023-03-31T22:09:31.869Z,3.13
2023-03-31T22:12:36.766Z,2.53
2023-03-31T22:15:44.402Z,3.60
2023-03-31T22:18:47.698Z,5.25
2023-03-31T22:21:50.401Z,2.90
2023-03-31T22:24:52.704Z,2.38
2023-03-31T22:27:55.067Z,2.72
2023-03-31T22:30:59.687Z,3.78
2023-03-31T22:34:01.991Z,2.20
2023-03-31T22:37:06.748Z,2.00
2023-03-31T22:40:12.410Z,2.80
2023-03-31T22:46:22.179Z,2.17
2023-03-31T22:49:26.693Z,3.10
2023-03-31T22:52:33.704Z,2.95
2023-03-31T22:55:42.337Z,3.05
2023-03-31T22:58:44.724Z,2.30
2023-03-31T23:01:54.845Z,3.35
2023-03-31T23:04:59.863Z,3.72
2023-03-31T23:08:04.401Z,1.90
2023-03-31T23:11:11.015Z,2.03
2023-03-31T23:14:16.506Z,2.42
2023-03-31T23:17:19.309Z,2.03
2023-03-31T23:20:22.825Z,3.58
2023-03-31T23:23:29.884Z,2.20
2023-03-31T23:26:34.161Z,4.10
2023-03-31T23:29:39.192Z,12.07
2023-03-31T23:32:41.680Z,3.80
2023-03-31T23:35:46.265Z,2.30
2023-03-31T23:38:49.932Z,3.00
2023-03-31T23:41:54.598Z,6.93
2023-03-31T23:44:59.585Z,5.47
2023-03-31T23:48:02.055Z,3.08
2023-03-31T23:51:05.936Z,3.67
2023-03-31T23:54:12.935Z,3.40
2023-03-31T23:57:15.382Z,3.55
